createdAt,value
2018-12-06T00:01:56.926Z,11.60
2018-12-06T00:04:24.462Z,11.30
2018-12-06T00:06:51.967Z,9.60
2018-12-06T00:09:19.434Z,10.77
2018-12-06T00:11:46.906Z,8.50
2018-12-06T00:14:14.350Z,10.63
2018-12-06T00:16:41.822Z,11.20
2018-12-06T00:19:09.728Z,11.30
2018-12-06T00:21:37.298Z,11.10
2018-12-06T00:24:04.797Z,11.27
2018-12-06T00:26:32.279Z,11.40
2018-12-06T00:28:59.772Z,11.40
2018-12-06T00:31:27.250Z,10.77
2018-12-06T00:33:54.746Z,10.60
2018-12-06T00:36:22.195Z,11.40
2018-12-06T00:38:49.666Z,9.93
2018-12-06T00:41:17.138Z,10.60
2018-12-06T00:43:44.610Z,11.90
2018-12-06T00:46:12.263Z,11.90
2018-12-06T00:48:39.821Z,11.20
2018-12-06T00:51:07.316Z,11.87
2018-12-06T00:53:34.787Z,12.17
2018-12-06T00:56:02.335Z,12.57
2018-12-06T00:58:29.790Z,11.60
2018-12-06T01:00:57.248Z,12.57
2018-12-06T01:03:24.723Z,12.40
2018-12-06T01:05:52.223Z,12.07
2018-12-06T01:08:19.704Z,12.53
2018-12-06T01:10:47.476Z,12.33
2018-12-06T01:13:15.167Z,11.23
2018-12-06T01:15:42.598Z,12.40
2018-12-06T01:18:10.077Z,11.10
2018-12-06T01:20:37.577Z,12.37
2018-12-06T01:23:05.048Z,9.50
2018-12-06T01:25:32.499Z,10.77
2018-12-06T01:27:59.970Z,11.47
2018-12-06T01:30:27.415Z,11.70
2018-12-06T01:32:54.890Z,11.67
2018-12-06T01:35:22.363Z,11.37
2018-12-06T01:37:49.822Z,11.03
2018-12-06T01:40:17.293Z,10.87
2018-12-06T01:42:44.754Z,11.57
2018-12-06T01:45:12.300Z,11.70
2018-12-06T01:47:39.885Z,12.97
2018-12-06T01:50:07.545Z,12.47
2018-12-06T01:52:35.011Z,13.07
2018-12-06T01:55:02.477Z,11.73
2018-12-06T01:57:29.963Z,13.10
2018-12-06T01:59:57.417Z,13.97
2018-12-06T02:02:24.938Z,13.30
2018-12-06T02:04:52.490Z,13.07
2018-12-06T02:07:19.942Z,11.50
2018-12-06T02:09:47.403Z,11.83
2018-12-06T02:12:14.882Z,12.17
2018-12-06T02:14:42.367Z,12.30
2018-12-06T02:17:09.847Z,12.90
2018-12-06T02:19:37.301Z,12.47
2018-12-06T02:22:04.817Z,12.27
2018-12-06T02:24:32.287Z,13.80
2018-12-06T02:26:59.734Z,14.20
2018-12-06T02:29:29.150Z,15.57
2018-12-06T02:31:56.635Z,14.90
2018-12-06T02:34:24.121Z,11.87
2018-12-06T02:36:51.575Z,14.90
2018-12-06T02:39:19.025Z,16.30
2018-12-06T02:41:46.504Z,16.03
2018-12-06T02:44:13.990Z,16.27
2018-12-06T02:46:41.638Z,14.90
2018-12-06T02:49:09.105Z,16.60
2018-12-06T02:51:36.592Z,15.07
2018-12-06T02:54:04.103Z,17.50
2018-12-06T02:56:31.594Z,12.23
2018-12-06T02:58:59.114Z,15.60
2018-12-06T03:01:26.623Z,15.30
2018-12-06T03:03:54.112Z,14.50
2018-12-06T03:06:21.597Z,15.17
2018-12-06T03:08:49.054Z,16.57
2018-12-06T03:11:16.526Z,16.40
2018-12-06T03:13:44.040Z,14.47
2018-12-06T03:16:11.531Z,16.27
2018-12-06T03:18:38.985Z,17.20
2018-12-06T03:21:06.482Z,16.60
2018-12-06T03:23:33.953Z,16.33
2018-12-06T03:26:01.411Z,15.93
2018-12-06T03:28:28.888Z,15.37
2018-12-06T03:30:56.367Z,16.53
2018-12-06T03:33:23.953Z,15.37
2018-12-06T03:35:51.579Z,16.00
2018-12-06T03:38:19.056Z,16.20
2018-12-06T03:40:46.513Z,15.17
2018-12-06T03:43:14.018Z,17.13
2018-12-06T03:45:41.476Z,15.60
2018-12-06T03:48:08.981Z,16.70
2018-12-06T03:50:36.484Z,16.40
2018-12-06T03:53:04.004Z,14.73
2018-12-06T03:55:31.610Z,15.80
2018-12-06T03:57:59.171Z,14.90
2018-12-06T04:00:26.627Z,13.43
2018-12-06T04:02:54.107Z,15.67
2018-12-06T04:05:21.698Z,14.60
2018-12-06T04:07:49.174Z,16.70
2018-12-06T04:10:16.665Z,15.10
2018-12-06T04:12:44.319Z,18.00
2018-12-06T04:15:11.851Z,14.00
2018-12-06T04:17:39.327Z,15.63
2018-12-06T04:20:06.863Z,15.37
2018-12-06T04:22:34.610Z,13.50
2018-12-06T04:25:02.188Z,15.60
2018-12-06T04:27:50.230Z,15.60
2018-12-06T04:30:17.702Z,14.27
2018-12-06T04:32:45.195Z,13.97
2018-12-06T04:35:12.658Z,15.30
2018-12-06T04:37:40.110Z,14.70
2018-12-06T04:40:07.586Z,16.10
2018-12-06T04:42:35.058Z,15.37
2018-12-06T04:45:02.520Z,13.07
2018-12-06T04:47:29.983Z,15.23
2018-12-06T04:49:57.471Z,12.77
2018-12-06T04:52:24.929Z,15.20
2018-12-06T04:54:52.405Z,15.17
2018-12-06T04:57:19.865Z,14.70
2018-12-06T04:59:47.335Z,15.63
2018-12-06T05:02:14.817Z,14.70
2018-12-06T05:04:42.296Z,14.37
2018-12-06T05:07:09.761Z,13.33
2018-12-06T05:09:37.271Z,13.50
2018-12-06T05:12:04.731Z,13.67
2018-12-06T05:14:32.256Z,13.80
2018-12-06T05:16:59.731Z,15.03
2018-12-06T05:19:27.199Z,13.77
2018-12-06T05:21:54.666Z,15.07
2018-12-06T05:24:22.126Z,13.07
2018-12-06T05:26:49.651Z,15.63
2018-12-06T05:29:17.142Z,14.30
2018-12-06T05:31:44.628Z,12.13
2018-12-06T05:34:12.084Z,13.53
2018-12-06T05:36:39.547Z,15.50
2018-12-06T05:39:07.078Z,15.23
2018-12-06T05:41:34.530Z,13.53
2018-12-06T05:44:02.002Z,12.57
2018-12-06T05:46:29.458Z,17.57
2018-12-06T05:48:56.931Z,16.80
2018-12-06T05:51:24.438Z,16.17
2018-12-06T05:53:51.926Z,15.70
2018-12-06T05:56:19.378Z,16.77
2018-12-06T05:58:46.869Z,17.00
2018-12-06T06:01:14.319Z,17.90
2018-12-06T06:03:43.453Z,18.43
2018-12-06T06:06:11.219Z,19.80
2018-12-06T06:08:38.673Z,18.40
2018-12-06T06:11:06.165Z,19.37
2018-12-06T06:13:33.637Z,21.17
2018-12-06T06:16:01.118Z,22.07
2018-12-06T06:18:28.592Z,18.20
2018-12-06T06:20:56.081Z,18.87
2018-12-06T06:23:23.623Z,19.53
2018-12-06T06:25:51.094Z,19.70
2018-12-06T06:28:18.595Z,14.63
2018-12-06T06:30:46.130Z,22.20
2018-12-06T06:33:13.699Z,21.27
2018-12-06T06:35:41.177Z,27.07
2018-12-06T06:38:08.621Z,20.97
2018-12-06T06:40:36.095Z,23.80
2018-12-06T06:43:03.586Z,25.63
2018-12-06T06:45:31.316Z,23.03
2018-12-06T06:47:58.805Z,25.17
2018-12-06T06:50:26.322Z,25.07
2018-12-06T06:52:53.771Z,23.80
2018-12-06T06:55:21.262Z,23.83
2018-12-06T06:57:48.834Z,20.83
2018-12-06T07:00:16.314Z,25.87
2018-12-06T07:02:43.765Z,24.30
2018-12-06T07:05:11.389Z,24.10
2018-12-06T07:07:38.855Z,22.87
2018-12-06T07:10:07.110Z,23.17
2018-12-06T07:12:34.614Z,27.47
2018-12-06T07:15:02.233Z,28.90
2018-12-06T07:17:29.695Z,26.23
2018-12-06T07:19:57.170Z,30.47
2018-12-06T07:22:24.676Z,27.07
2018-12-06T07:24:52.246Z,28.77
2018-12-06T07:27:19.706Z,28.10
2018-12-06T07:29:48.550Z,29.77
2018-12-06T07:32:16.371Z,30.63
2018-12-06T07:34:43.857Z,25.00
2018-12-06T07:37:11.314Z,29.97
2018-12-06T07:39:38.766Z,25.53
2018-12-06T07:42:06.242Z,28.10
2018-12-06T07:44:33.755Z,29.40
2018-12-06T07:47:01.239Z,30.20
2018-12-06T07:49:28.694Z,28.40
2018-12-06T07:51:56.174Z,30.17
2018-12-06T07:54:23.742Z,28.80
2018-12-06T07:56:51.251Z,31.37
2018-12-06T07:59:18.735Z,29.90
2018-12-06T08:01:46.184Z,30.37
2018-12-06T08:04:13.662Z,28.10
2018-12-06T08:06:41.114Z,27.37
2018-12-06T08:09:09.568Z,30.63
2018-12-06T08:11:38.624Z,30.43
2018-12-06T08:14:06.259Z,29.27
2018-12-06T08:16:33.739Z,31.73
2018-12-06T08:19:01.246Z,29.60
2018-12-06T08:21:28.714Z,31.60
2018-12-06T08:23:56.170Z,28.83
2018-12-06T08:26:23.622Z,29.10
2018-12-06T08:28:51.101Z,30.27
2018-12-06T08:31:18.552Z,27.03
2018-12-06T08:33:46.031Z,23.93
2018-12-06T08:36:13.515Z,27.80
2018-12-06T08:38:40.999Z,25.33
2018-12-06T08:41:08.506Z,28.70
2018-12-06T08:43:36.066Z,27.53
2018-12-06T08:46:03.581Z,29.43
2018-12-06T08:48:31.074Z,26.43
2018-12-06T08:50:58.544Z,27.87
2018-12-06T08:53:26.027Z,26.50
2018-12-06T08:55:53.471Z,26.47
2018-12-06T08:58:20.958Z,29.80
2018-12-06T09:00:48.414Z,25.47
2018-12-06T09:03:15.895Z,29.37
2018-12-06T09:05:43.374Z,27.47
2018-12-06T09:08:10.910Z,27.00
2018-12-06T09:10:38.372Z,26.57
2018-12-06T09:13:05.854Z,25.53
2018-12-06T09:15:33.306Z,18.17
2018-12-06T09:18:00.815Z,26.40
2018-12-06T09:20:28.272Z,26.60
2018-12-06T09:22:55.722Z,24.90
2018-12-06T09:25:23.212Z,18.20
2018-12-06T09:27:50.671Z,26.30
2018-12-06T09:30:18.230Z,26.27
2018-12-06T09:32:45.711Z,27.47
2018-12-06T09:35:13.210Z,24.07
2018-12-06T09:37:40.734Z,21.17
2018-12-06T09:40:08.303Z,24.03
2018-12-06T09:42:35.755Z,21.97
2018-12-06T09:45:03.826Z,25.43
2018-12-06T09:47:31.309Z,21.40
2018-12-06T09:49:58.764Z,26.27
2018-12-06T09:52:26.235Z,25.07
2018-12-06T09:54:53.762Z,27.57
2018-12-06T09:57:21.238Z,19.00
2018-12-06T09:59:48.693Z,22.57
2018-12-06T10:02:16.176Z,18.97
2018-12-06T10:04:43.645Z,17.73
2018-12-06T10:07:11.135Z,20.70
2018-12-06T10:09:38.595Z,22.90
2018-12-06T10:12:06.098Z,22.30
2018-12-06T10:14:33.676Z,19.43
2018-12-06T10:17:01.127Z,9.17
2018-12-06T10:19:28.611Z,20.90
2018-12-06T10:21:56.137Z,16.57
2018-12-06T10:24:23.587Z,19.10
2018-12-06T10:26:51.068Z,18.60
2018-12-06T10:29:18.542Z,15.73
2018-12-06T10:31:46.027Z,21.50
2018-12-06T10:34:13.538Z,19.50
2018-12-06T10:36:40.995Z,20.57
2018-12-06T10:39:08.530Z,15.73
2018-12-06T10:41:36.037Z,16.13
2018-12-06T10:44:03.920Z,15.13
2018-12-06T10:46:31.371Z,17.43
2018-12-06T10:48:58.842Z,15.73
2018-12-06T10:51:35.091Z,17.03
2018-12-06T10:54:02.554Z,12.67
2018-12-06T10:56:30.002Z,10.73
2018-12-06T10:58:57.485Z,13.67
2018-12-06T11:01:26.883Z,12.30
2018-12-06T11:04:02.041Z,15.53
2018-12-06T11:06:29.583Z,15.57
2018-12-06T11:08:57.033Z,16.03
2018-12-06T11:11:24.522Z,15.57
2018-12-06T11:13:51.998Z,10.73
2018-12-06T11:16:19.444Z,15.57
2018-12-06T11:19:14.956Z,14.90
2018-12-06T11:21:42.418Z,18.80
2018-12-06T11:24:10.040Z,23.30
2018-12-06T11:26:37.495Z,23.97
2018-12-06T11:29:05.022Z,22.50
2018-12-06T11:31:32.506Z,22.00
2018-12-06T11:34:00.059Z,22.27
2018-12-06T11:36:27.524Z,27.47
2018-12-06T11:38:54.982Z,29.27
2018-12-06T11:41:22.466Z,31.97
2018-12-06T11:43:49.926Z,24.57
2018-12-06T11:46:17.393Z,27.97
2018-12-06T11:48:44.875Z,18.00
2018-12-06T11:51:12.330Z,26.90
2018-12-06T11:53:39.807Z,33.40
2018-12-06T11:56:07.294Z,32.20
2018-12-06T11:58:34.779Z,17.00
2018-12-06T12:01:02.249Z,30.70
2018-12-06T12:03:29.730Z,32.20
2018-12-06T12:05:58.813Z,21.77
2018-12-06T12:08:26.478Z,30.07
2018-12-06T12:10:53.934Z,31.03
2018-12-06T12:13:21.434Z,25.10
2018-12-06T12:15:48.926Z,31.47
2018-12-06T12:18:16.375Z,25.57
2018-12-06T12:20:43.850Z,28.37
2018-12-06T12:23:11.321Z,25.63
2018-12-06T12:25:38.775Z,28.00
2018-12-06T12:28:06.253Z,19.73
2018-12-06T12:30:33.742Z,26.00
2018-12-06T12:33:01.196Z,25.40
2018-12-06T12:35:28.735Z,25.73
2018-12-06T12:37:56.218Z,13.93
2018-12-06T12:40:23.743Z,21.43
2018-12-06T12:42:51.219Z,22.10
2018-12-06T12:45:18.679Z,22.77
2018-12-06T12:47:46.162Z,19.00
2018-12-06T12:50:13.661Z,19.57
2018-12-06T12:52:41.142Z,19.87
2018-12-06T12:55:08.629Z,13.23
2018-12-06T12:57:36.141Z,14.87
2018-12-06T13:00:05.297Z,17.63
2018-12-06T13:02:32.788Z,16.40
2018-12-06T13:05:00.265Z,16.33
2018-12-06T13:07:27.735Z,19.30
2018-12-06T13:09:55.187Z,17.43
2018-12-06T13:12:22.829Z,15.70
2018-12-06T13:14:50.294Z,16.23
2018-12-06T13:17:17.898Z,17.80
2018-12-06T13:19:45.479Z,18.70
2018-12-06T13:22:13.017Z,18.50
2018-12-06T13:24:40.468Z,15.90
2018-12-06T13:27:07.918Z,18.93
2018-12-06T13:29:35.424Z,15.90
2018-12-06T13:32:02.908Z,16.50
2018-12-06T13:34:30.389Z,16.63
2018-12-06T13:36:57.890Z,15.40
2018-12-06T13:39:25.367Z,16.47
2018-12-06T13:41:52.845Z,17.90
2018-12-06T13:44:20.378Z,13.80
2018-12-06T13:46:47.900Z,17.53
2018-12-06T13:49:15.383Z,18.30
2018-12-06T13:51:42.854Z,17.73
2018-12-06T13:54:10.316Z,17.20
2018-12-06T13:56:37.786Z,16.90
2018-12-06T13:59:05.267Z,14.77
2018-12-06T14:01:32.712Z,13.80
2018-12-06T14:04:00.175Z,12.80
2018-12-06T14:06:27.655Z,14.60
2018-12-06T14:08:55.118Z,13.30
2018-12-06T14:11:22.598Z,10.43
2018-12-06T14:13:50.050Z,9.60
2018-12-06T14:16:17.536Z,12.97
2018-12-06T14:18:44.983Z,15.13
2018-12-06T14:21:12.443Z,11.97
2018-12-06T14:23:39.919Z,15.97
2018-12-06T14:26:07.378Z,11.97
2018-12-06T14:28:34.847Z,11.33
2018-12-06T14:31:02.305Z,10.80
2018-12-06T14:33:29.779Z,14.50
2018-12-06T14:35:57.258Z,14.03
2018-12-06T14:38:24.727Z,11.57
2018-12-06T14:40:52.202Z,11.70
2018-12-06T14:43:19.730Z,13.73
2018-12-06T14:45:47.630Z,12.03
2018-12-06T14:48:15.167Z,8.57
2018-12-06T14:50:42.636Z,12.50
2018-12-06T14:53:10.192Z,12.93
2018-12-06T14:55:37.670Z,13.57
2018-12-06T14:58:05.158Z,12.87
2018-12-06T15:00:32.659Z,15.80
2018-12-06T15:03:00.138Z,13.13
2018-12-06T15:05:27.627Z,15.87
2018-12-06T15:07:55.095Z,16.20
2018-12-06T15:10:22.948Z,13.87
2018-12-06T15:12:50.421Z,14.03
2018-12-06T15:15:17.931Z,15.20
2018-12-06T15:17:45.375Z,15.80
2018-12-06T15:20:12.882Z,14.10
2018-12-06T15:22:40.366Z,15.27
2018-12-06T15:25:07.839Z,15.40
2018-12-06T15:27:35.573Z,15.47
2018-12-06T15:30:03.502Z,13.97
2018-12-06T15:32:31.067Z,14.27
2018-12-06T15:34:58.640Z,15.07
2018-12-06T15:37:26.286Z,15.07
2018-12-06T15:39:53.990Z,10.43
2018-12-06T15:42:21.897Z,9.90
2018-12-06T15:44:49.946Z,9.30
2018-12-06T15:47:17.570Z,11.80
2018-12-06T15:49:45.017Z,12.47
2018-12-06T15:52:12.994Z,12.53
2018-12-06T15:54:41.275Z,11.37
2018-12-06T15:57:08.771Z,10.67
2018-12-06T15:59:36.257Z,12.70
2018-12-06T16:02:05.887Z,12.47
2018-12-06T16:04:34.379Z,14.00
2018-12-06T16:07:02.072Z,11.30
2018-12-06T16:09:29.630Z,11.47
2018-12-06T16:11:57.476Z,12.30
2018-12-06T16:14:26.073Z,12.40
2018-12-06T16:16:53.546Z,12.70
2018-12-06T16:19:23.003Z,10.53
2018-12-06T16:21:50.936Z,12.20
2018-12-06T16:24:18.407Z,12.03
2018-12-06T16:26:45.926Z,10.20
2018-12-06T16:29:13.440Z,11.83
2018-12-06T16:31:40.945Z,11.17
2018-12-06T16:34:08.435Z,9.70
2018-12-06T16:36:35.889Z,12.13
2018-12-06T16:39:05.669Z,12.47
2018-12-06T16:41:33.161Z,11.70
2018-12-06T16:44:01.190Z,12.80
2018-12-06T16:46:28.662Z,12.77
2018-12-06T16:48:56.131Z,13.37
2018-12-06T16:51:23.684Z,14.87
2018-12-06T16:53:51.242Z,14.37
2018-12-06T16:56:18.705Z,16.77
2018-12-06T16:58:46.265Z,14.27
2018-12-06T17:01:13.742Z,12.93
2018-12-06T17:03:41.275Z,12.60
2018-12-06T17:06:08.755Z,15.50
2018-12-06T17:08:36.311Z,11.70
2018-12-06T17:11:04.514Z,13.20
2018-12-06T17:13:32.107Z,12.50
2018-12-06T17:15:59.588Z,13.53
2018-12-06T17:18:27.057Z,12.67
2018-12-06T17:20:54.506Z,11.93
2018-12-06T17:23:21.987Z,12.07
2018-12-06T17:25:49.443Z,12.37
2018-12-06T17:28:17.890Z,14.30
2018-12-06T17:30:45.375Z,12.10
2018-12-06T17:33:13.207Z,13.97
2018-12-06T17:35:40.920Z,12.20
2018-12-06T17:38:08.659Z,12.30
2018-12-06T17:40:36.195Z,13.87
2018-12-06T17:43:03.784Z,14.83
2018-12-06T17:45:31.248Z,10.63
2018-12-06T17:47:58.796Z,11.47
2018-12-06T17:50:26.325Z,14.50
2018-12-06T17:52:53.806Z,12.87
2018-12-06T17:55:21.289Z,12.00
2018-12-06T17:57:48.792Z,14.37
2018-12-06T18:00:16.304Z,13.27
2018-12-06T18:02:43.873Z,14.40
2018-12-06T18:05:11.501Z,13.17
2018-12-06T18:07:38.978Z,13.00
2018-12-06T18:10:06.820Z,13.00
2018-12-06T18:12:34.278Z,11.83
2018-12-06T18:15:01.763Z,12.97
2018-12-06T18:17:29.248Z,8.93
2018-12-06T18:19:56.743Z,14.17
2018-12-06T18:22:24.198Z,10.87
2018-12-06T18:24:51.752Z,11.70
2018-12-06T18:27:19.229Z,11.77
2018-12-06T18:29:46.699Z,13.40
2018-12-06T18:32:14.174Z,16.17
2018-12-06T18:34:41.630Z,13.77
2018-12-06T18:37:09.127Z,8.90
2018-12-06T18:39:36.590Z,13.63
2018-12-06T18:42:04.064Z,8.50
2018-12-06T18:44:31.670Z,13.73
2018-12-06T18:46:59.465Z,12.60
2018-12-06T18:49:26.985Z,15.20
2018-12-06T18:51:55.245Z,12.90
2018-12-06T18:54:22.826Z,14.57
2018-12-06T18:56:50.577Z,13.93
2018-12-06T18:59:18.073Z,11.90
2018-12-06T19:01:45.683Z,14.10
2018-12-06T19:04:13.190Z,11.60
2018-12-06T19:06:41.763Z,10.77
2018-12-06T19:09:09.314Z,14.70
2018-12-06T19:11:37.256Z,8.43
2018-12-06T19:14:04.808Z,15.77
2018-12-06T19:16:32.299Z,10.50
2018-12-06T19:18:59.778Z,15.93
2018-12-06T19:21:27.250Z,8.90
2018-12-06T19:23:54.831Z,13.90
2018-12-06T19:26:22.323Z,9.43
2018-12-06T19:28:49.867Z,16.00
2018-12-06T19:31:17.346Z,15.63
2018-12-06T19:33:44.812Z,11.40
2018-12-06T19:36:12.453Z,14.27
2018-12-06T19:38:40.067Z,14.13
2018-12-06T19:41:07.602Z,15.03
2018-12-06T19:43:35.087Z,11.27
2018-12-06T19:46:02.551Z,14.20
2018-12-06T19:48:30.233Z,13.90
2018-12-06T19:50:57.718Z,9.83
2018-12-06T19:53:25.432Z,12.80
2018-12-06T19:55:52.993Z,16.30
2018-12-06T19:58:20.475Z,16.07
2018-12-06T20:00:47.933Z,13.87
2018-12-06T20:03:15.477Z,17.30
2018-12-06T20:05:43.114Z,15.33
2018-12-06T20:08:11.234Z,13.20
2018-12-06T20:10:38.718Z,17.17
2018-12-06T20:13:06.206Z,14.97
2018-12-06T20:15:33.910Z,14.47
2018-12-06T20:18:01.828Z,16.20
2018-12-06T20:20:29.510Z,15.83
2018-12-06T20:22:57.292Z,14.40
2018-12-06T20:25:24.830Z,16.17
2018-12-06T20:27:52.523Z,17.00
2018-12-06T20:30:20.022Z,14.90
2018-12-06T20:32:47.560Z,15.67
2018-12-06T20:35:15.073Z,11.07
2018-12-06T20:37:42.626Z,13.27
2018-12-06T20:40:10.145Z,10.90
2018-12-06T20:42:37.725Z,15.33
2018-12-06T20:45:05.359Z,13.50
2018-12-06T20:47:33.022Z,14.37
2018-12-06T20:50:00.505Z,13.47
2018-12-06T20:52:28.014Z,14.70
2018-12-06T20:54:55.519Z,9.63
2018-12-06T20:57:23.059Z,13.40
2018-12-06T20:59:50.581Z,14.77
2018-12-06T21:02:18.196Z,15.00
2018-12-06T21:04:45.806Z,11.60
2018-12-06T21:07:13.321Z,10.17
2018-12-06T21:09:40.839Z,16.40
2018-12-06T21:12:08.318Z,11.97
2018-12-06T21:14:35.879Z,10.97
2018-12-06T21:17:03.375Z,9.20
2018-12-06T21:19:30.836Z,13.17
2018-12-06T21:21:58.323Z,11.20
2018-12-06T21:24:25.831Z,9.83
2018-12-06T21:26:53.337Z,12.60
2018-12-06T21:29:20.817Z,11.80
2018-12-06T21:31:48.282Z,9.30
2018-12-06T21:34:15.757Z,9.30
2018-12-06T21:36:43.234Z,9.73
2018-12-06T21:39:10.701Z,10.70
2018-12-06T21:41:38.210Z,11.73
2018-12-06T21:44:05.687Z,10.30
2018-12-06T21:46:33.173Z,7.67
2018-12-06T21:49:00.659Z,11.10
2018-12-06T21:51:28.111Z,8.90
2018-12-06T21:53:55.595Z,8.93
2018-12-06T21:56:23.043Z,10.33
2018-12-06T21:58:50.513Z,11.70
2018-12-06T22:01:18.031Z,5.63
2018-12-06T22:03:45.513Z,9.47
2018-12-06T22:06:12.991Z,11.10
2018-12-06T22:08:40.471Z,7.77
2018-12-06T22:11:07.949Z,10.63
2018-12-06T22:13:35.504Z,10.10
2018-12-06T22:16:02.969Z,8.20
2018-12-06T22:18:30.437Z,7.30
2018-12-06T22:20:57.918Z,9.13
2018-12-06T22:23:25.370Z,6.87
2018-12-06T22:25:52.847Z,7.27
2018-12-06T22:28:20.294Z,8.70
2018-12-06T22:30:47.780Z,5.47
2018-12-06T22:33:15.230Z,8.63
2018-12-06T22:35:42.710Z,6.83
2018-12-06T22:38:10.163Z,6.10
2018-12-06T22:40:37.615Z,7.50
2018-12-06T22:43:05.080Z,9.50
2018-12-06T22:45:55.206Z,8.30
2018-12-06T22:48:23.277Z,8.70
2018-12-06T22:50:50.780Z,9.00
2018-12-06T22:53:18.266Z,6.23
2018-12-06T22:55:45.711Z,7.80
2018-12-06T22:58:13.224Z,4.43
2018-12-06T23:00:43.729Z,9.53
2018-12-06T23:03:11.309Z,8.30
2018-12-06T23:05:38.758Z,9.23
2018-12-06T23:08:06.234Z,8.40
2018-12-06T23:10:33.763Z,11.30
2018-12-06T23:13:01.220Z,9.37
2018-12-06T23:15:28.780Z,8.87
2018-12-06T23:17:56.270Z,6.67
2018-12-06T23:20:23.760Z,6.80
2018-12-06T23:22:51.202Z,5.40
2018-12-06T23:25:18.681Z,7.90
2018-12-06T23:27:46.147Z,6.70
2018-12-06T23:30:13.668Z,8.10
2018-12-06T23:32:41.123Z,6.83
2018-12-06T23:35:08.599Z,7.00
2018-12-06T23:37:36.051Z,6.63
2018-12-06T23:40:05.441Z,4.33
2018-12-06T23:42:33.006Z,8.00
2018-12-06T23:45:00.520Z,5.87
2018-12-06T23:47:27.988Z,7.83
2018-12-06T23:49:55.477Z,5.77
2018-12-06T23:52:22.921Z,4.90
2018-12-06T23:54:50.639Z,5.53
2018-12-06T23:57:18.103Z,6.80
2018-12-06T23:59:45.686Z,3.37
